createdAt,value
2023-12-11T00:03:50.959Z,8.53
2023-12-11T00:08:54.127Z,6.70
2023-12-11T00:13:59.024Z,8.10
2023-12-11T00:19:02.061Z,8.17
2023-12-11T00:24:05.569Z,8.20
2023-12-11T00:29:09.457Z,7.30
2023-12-11T00:34:13.180Z,7.20
2023-12-11T00:39:18.160Z,7.10
2023-12-11T00:44:21.416Z,8.27
2023-12-11T00:49:24.806Z,8.40
2023-12-11T00:54:28.026Z,7.13
2023-12-11T00:59:31.117Z,7.27
2023-12-11T01:04:34.510Z,7.63
2023-12-11T01:09:38.001Z,7.67
2023-12-11T01:14:41.277Z,7.10
2023-12-11T01:19:44.713Z,6.93
2023-12-11T01:24:47.837Z,6.77
2023-12-11T01:29:50.787Z,7.33
2023-12-11T01:34:54.144Z,6.77
2023-12-11T01:39:57.326Z,6.30
2023-12-11T01:45:00.718Z,6.97
2023-12-11T01:50:04.662Z,5.97
2023-12-11T01:55:08.304Z,5.93
2023-12-11T02:00:12.373Z,5.30
2023-12-11T02:05:15.450Z,4.07
2023-12-11T02:10:18.917Z,4.37
2023-12-11T02:15:38.516Z,4.13
2023-12-11T02:20:42.800Z,3.47
2023-12-11T02:25:49.965Z,3.73
2023-12-11T02:30:53.027Z,3.50
2023-12-11T02:35:56.102Z,4.53
2023-12-11T02:40:59.132Z,2.33
2023-12-11T02:46:02.099Z,4.80
2023-12-11T02:51:05.924Z,4.57
2023-12-11T02:56:09.707Z,5.30
2023-12-11T03:01:13.336Z,3.87
2023-12-11T03:06:21.059Z,4.57
2023-12-11T03:11:23.961Z,4.63
2023-12-11T03:16:26.865Z,3.93
2023-12-11T03:21:30.523Z,5.03
2023-12-11T03:26:33.837Z,4.73
2023-12-11T03:31:38.288Z,4.37
2023-12-11T03:36:41.784Z,5.00
2023-12-11T03:41:46.202Z,5.10
2023-12-11T03:46:49.444Z,5.50
2023-12-11T03:51:53.122Z,5.57
2023-12-11T03:56:56.367Z,5.70
2023-12-11T04:02:00.510Z,5.53
2023-12-11T04:07:04.458Z,6.10
2023-12-11T04:12:08.430Z,6.47
2023-12-11T04:17:11.583Z,5.10
2023-12-11T04:22:14.925Z,6.60
2023-12-11T04:27:18.456Z,4.67
2023-12-11T04:32:22.005Z,6.17
2023-12-11T04:37:25.238Z,5.17
2023-12-11T04:42:28.435Z,5.30
2023-12-11T04:47:31.827Z,3.80
2023-12-11T04:52:35.420Z,5.93
2023-12-11T04:57:38.610Z,4.77
2023-12-11T05:02:42.375Z,5.40
2023-12-11T05:07:45.866Z,4.77
2023-12-11T05:12:49.376Z,5.27
2023-12-11T05:17:53.129Z,4.53
2023-12-11T05:22:56.287Z,5.07
2023-12-11T05:27:59.615Z,5.10
2023-12-11T05:33:03.299Z,5.83
2023-12-11T05:38:06.584Z,6.13
2023-12-11T05:43:09.718Z,5.13
2023-12-11T05:48:13.234Z,4.70
2023-12-11T05:53:16.730Z,5.03
2023-12-11T05:58:20.334Z,5.13
2023-12-11T06:03:23.425Z,6.07
2023-12-11T06:08:27.921Z,6.37
2023-12-11T06:13:31.548Z,5.97
2023-12-11T06:18:35.112Z,6.03
2023-12-11T06:23:38.271Z,5.00
2023-12-11T06:28:41.624Z,5.80
2023-12-11T06:33:45.347Z,3.57
2023-12-11T06:38:51.977Z,4.97
2023-12-11T06:43:59.406Z,4.20
2023-12-11T06:49:03.996Z,4.20
2023-12-11T06:54:07.613Z,4.50
2023-12-11T06:59:10.826Z,4.00
2023-12-11T07:04:14.448Z,4.53
2023-12-11T07:09:17.855Z,3.93
2023-12-11T07:14:21.855Z,4.20
2023-12-11T07:19:25.310Z,5.17
2023-12-11T07:24:28.728Z,4.63
2023-12-11T07:29:32.209Z,4.97
2023-12-11T07:34:36.582Z,4.57
2023-12-11T07:39:40.368Z,4.70
2023-12-11T07:44:43.733Z,3.77
2023-12-11T07:49:46.991Z,4.20
2023-12-11T07:54:51.133Z,4.07
2023-12-11T07:59:55.102Z,4.83
2023-12-11T08:04:58.760Z,4.67
2023-12-11T08:10:03.130Z,4.10
2023-12-11T08:15:07.108Z,4.17
2023-12-11T08:20:13.554Z,3.23
2023-12-11T08:25:17.370Z,4.60
2023-12-11T08:30:21.101Z,4.13
2023-12-11T08:35:24.553Z,6.47
2023-12-11T08:40:28.104Z,6.77
2023-12-11T08:45:31.700Z,5.43
2023-12-11T08:50:34.922Z,5.97
2023-12-11T08:55:39.765Z,7.13
2023-12-11T09:00:45.963Z,5.97
2023-12-11T09:05:49.481Z,7.07
2023-12-11T09:10:52.963Z,6.23
2023-12-11T09:15:56.341Z,7.33
2023-12-11T09:20:59.734Z,5.73
2023-12-11T09:26:02.821Z,5.93
2023-12-11T09:31:06.691Z,5.47
2023-12-11T09:36:10.161Z,5.37
2023-12-11T09:41:13.850Z,5.13
2023-12-11T09:46:19.628Z,6.43
2023-12-11T09:51:23.682Z,8.13
2023-12-11T09:56:26.925Z,4.93
2023-12-11T10:01:31.457Z,6.03
2023-12-11T10:06:35.091Z,5.90
2023-12-11T10:11:38.565Z,5.00
2023-12-11T10:16:42.138Z,5.03
2023-12-11T10:21:45.918Z,4.60
2023-12-11T10:26:57.335Z,4.23
2023-12-11T10:32:05.861Z,4.73
2023-12-11T10:37:10.428Z,5.13
2023-12-11T10:42:18.052Z,3.80
2023-12-11T10:47:21.756Z,4.40
2023-12-11T10:52:25.713Z,4.53
2023-12-11T10:57:31.618Z,4.17
2023-12-11T11:02:36.456Z,4.63
2023-12-11T11:07:53.893Z,4.03
2023-12-11T11:13:24.865Z,3.50
2023-12-11T11:18:28.320Z,3.63
2023-12-11T11:23:34.091Z,3.60
2023-12-11T11:28:45.782Z,5.33
2023-12-11T11:33:51.796Z,3.67
2023-12-11T11:39:01.675Z,3.03
2023-12-11T11:44:10.737Z,2.53
2023-12-11T11:49:34.121Z,3.23
2023-12-11T11:54:40.061Z,3.20
2023-12-11T11:59:44.750Z,3.97
2023-12-11T12:04:48.680Z,3.73
2023-12-11T12:10:01.004Z,3.80
2023-12-11T12:15:07.303Z,4.47
2023-12-11T12:20:16.570Z,4.93
2023-12-11T12:25:20.463Z,3.20
2023-12-11T12:30:24.549Z,3.63
2023-12-11T12:35:29.053Z,3.43
2023-12-11T12:40:36.520Z,3.10
2023-12-11T12:45:40.791Z,3.37
2023-12-11T12:50:44.569Z,3.50
2023-12-11T12:55:48.246Z,3.93
2023-12-11T13:00:59.396Z,3.30
2023-12-11T13:06:06.440Z,4.43
2023-12-11T13:11:09.732Z,5.03
2023-12-11T13:16:13.271Z,3.30
2023-12-11T13:21:17.016Z,3.30
2023-12-11T13:26:21.779Z,3.53
2023-12-11T13:31:26.083Z,4.40
2023-12-11T13:36:30.152Z,3.13
2023-12-11T13:41:38.300Z,4.03
2023-12-11T13:46:42.062Z,3.13
2023-12-11T13:51:45.628Z,3.27
2023-12-11T13:56:50.153Z,3.87
2023-12-11T14:01:53.578Z,3.80
2023-12-11T14:06:59.373Z,3.67
2023-12-11T14:12:03.122Z,3.53
2023-12-11T14:17:09.420Z,3.67
2023-12-11T14:22:12.987Z,4.17
2023-12-11T14:27:16.400Z,5.13
2023-12-11T14:32:19.600Z,5.00
2023-12-11T14:37:23.158Z,5.13
2023-12-11T14:42:28.433Z,4.90
2023-12-11T14:47:32.428Z,5.73
2023-12-11T14:52:36.024Z,4.30
2023-12-11T14:57:39.340Z,5.53
2023-12-11T15:02:43.652Z,6.07
2023-12-11T15:07:48.567Z,5.37
2023-12-11T15:12:51.711Z,4.70
2023-12-11T15:17:55.441Z,4.87
2023-12-11T15:22:58.857Z,4.43
2023-12-11T15:28:02.853Z,6.33
2023-12-11T15:33:07.556Z,6.40
2023-12-11T15:38:11.143Z,6.97
2023-12-11T15:43:15.377Z,8.03
2023-12-11T15:48:24.229Z,8.13
2023-12-11T15:53:28.620Z,6.03
2023-12-11T15:58:32.110Z,6.43
2023-12-11T16:03:36.008Z,5.93
2023-12-11T16:08:39.553Z,6.60
2023-12-11T16:13:43.532Z,8.47
2023-12-11T16:18:48.277Z,9.80
2023-12-11T16:23:52.078Z,8.63
2023-12-11T16:28:55.577Z,7.73
2023-12-11T16:34:00.983Z,11.47
2023-12-11T16:39:04.555Z,10.87
2023-12-11T16:44:08.247Z,8.37
2023-12-11T16:49:15.636Z,6.33
2023-12-11T16:54:19.181Z,4.37
2023-12-11T16:59:22.400Z,7.80
2023-12-11T17:04:26.124Z,9.37
2023-12-11T17:09:31.168Z,9.57
2023-12-11T17:14:34.617Z,8.20
2023-12-11T17:19:38.357Z,8.80
2023-12-11T17:24:41.685Z,9.13
2023-12-11T17:29:45.494Z,8.20
2023-12-11T17:34:50.393Z,8.83
2023-12-11T17:39:54.947Z,9.17
2023-12-11T17:44:58.679Z,7.97
2023-12-11T17:50:01.913Z,7.63
2023-12-11T17:55:08.054Z,7.30
2023-12-11T18:00:12.108Z,7.43
2023-12-11T18:05:17.461Z,7.70
2023-12-11T18:10:21.329Z,8.77
2023-12-11T18:15:24.739Z,8.13
2023-12-11T18:20:28.460Z,7.33
2023-12-11T18:25:33.188Z,8.53
2023-12-11T18:30:37.340Z,7.57
2023-12-11T18:35:40.860Z,7.07
2023-12-11T18:40:44.439Z,7.47
2023-12-11T18:45:47.887Z,9.83
2023-12-11T18:50:51.054Z,6.43
2023-12-11T18:56:00.673Z,8.40
2023-12-11T19:01:05.116Z,8.87
2023-12-11T19:06:09.460Z,6.93
2023-12-11T19:11:17.418Z,7.83
2023-12-11T19:16:21.015Z,6.97
2023-12-11T19:21:25.091Z,8.87
2023-12-11T19:26:28.594Z,7.27
2023-12-11T19:31:32.880Z,7.83
2023-12-11T19:36:40.537Z,7.97
2023-12-11T19:41:45.120Z,7.97
2023-12-11T19:46:48.769Z,6.97
2023-12-11T19:51:52.505Z,16.47
2023-12-11T19:56:57.090Z,23.90
2023-12-11T20:02:04.517Z,25.97
2023-12-11T20:07:14.124Z,23.07
2023-12-11T20:12:19.205Z,13.70
2023-12-11T20:17:25.129Z,12.97
2023-12-11T20:22:30.549Z,17.83
2023-12-11T20:27:36.970Z,18.03
2023-12-11T20:32:42.465Z,18.07
2023-12-11T20:37:46.569Z,12.70
2023-12-11T20:42:50.715Z,12.53
2023-12-11T20:47:56.737Z,10.87
2023-12-11T20:53:01.340Z,10.17
2023-12-11T20:58:05.934Z,10.50
2023-12-11T21:03:09.820Z,10.87
2023-12-11T21:08:15.123Z,9.70
2023-12-11T21:13:21.621Z,11.80
2023-12-11T21:18:29.918Z,8.80
2023-12-11T21:23:37.404Z,9.43
2023-12-11T21:28:42.222Z,7.97
2023-12-11T21:33:47.528Z,8.47
2023-12-11T21:38:51.407Z,7.20
2023-12-11T21:43:57.251Z,8.17
2023-12-11T21:49:02.967Z,9.03
2023-12-11T21:54:07.505Z,7.50
2023-12-11T21:59:12.225Z,8.43
2023-12-11T22:04:16.689Z,8.30
2023-12-11T22:09:20.806Z,8.50
2023-12-11T22:14:24.848Z,7.47
2023-12-11T22:19:28.458Z,7.00
2023-12-11T22:24:32.370Z,6.83
2023-12-11T22:29:37.561Z,7.80
2023-12-11T22:34:44.471Z,7.70
2023-12-11T22:39:48.151Z,6.57
2023-12-11T22:44:51.514Z,6.73
2023-12-11T22:49:55.428Z,6.80
2023-12-11T22:54:58.947Z,6.40
2023-12-11T23:00:03.421Z,5.67
2023-12-11T23:05:07.714Z,6.13
2023-12-11T23:10:12.923Z,6.30
2023-12-11T23:15:16.450Z,6.03
2023-12-11T23:20:20.219Z,6.73
2023-12-11T23:25:24.551Z,6.30
2023-12-11T23:30:27.696Z,6.10
2023-12-11T23:35:30.656Z,7.87
2023-12-11T23:40:33.789Z,8.30
2023-12-11T23:45:38.008Z,7.10
2023-12-11T23:50:41.767Z,6.87
2023-12-11T23:55:46.598Z,6.50
